Sherwin, Kansas
Current Conditions -  °F | °C
As of 8:35 AM on Thursday 30 Oct 2014 (Local Time) from KPTS Reporting Station
Scattered Clouds Scattered Clouds  
Wind Chill: 56°   Ceiling: Unl
Heat Index: 56°   Visibility: 10mi
Dew Point: 45°   Wind: 14mph
Humidity: 67%   Direction: 220°SW
Pressure: 30.04"   Gusts: NA
Location:  37.1637°N, 94.898°W
Report Text: KPTS 301335Z AUTO 22012KT 10SM SCT110 13/07 A3004 RMK AO2 T01330073
Loading
Personal Weather Stations






























Interactive Weather Map
Tropical Storm Tracking
New forecast layout! Learn more

10-Day Weather Forecast

Advertisements
Track Severe Weather on mobile